createdAt,value
2017-09-16T00:01:36.679Z,100328.32
2017-09-16T00:04:04.995Z,100333.08
2017-09-16T00:06:34.079Z,100326.83
2017-09-16T00:09:02.377Z,100334.81
2017-09-16T00:11:30.670Z,100334.33
2017-09-16T00:13:58.973Z,100332.02
2017-09-16T00:16:27.300Z,100334.54
2017-09-16T00:18:56.390Z,100325.17
2017-09-16T00:21:25.441Z,100319.77
2017-09-16T00:23:53.797Z,100313.55
2017-09-16T00:26:22.110Z,100321.64
2017-09-16T00:28:50.430Z,100317.03
2017-09-16T00:31:19.493Z,100320.09
2017-09-16T00:33:47.794Z,100315.55
2017-09-16T00:36:16.865Z,100319.25
2017-09-16T00:38:45.165Z,100320.25
2017-09-16T00:41:14.263Z,100322.07
2017-09-16T00:43:43.323Z,100314.47
2017-09-16T00:46:11.636Z,100312.36
2017-09-16T00:48:40.711Z,100315.23
2017-09-16T00:51:09.044Z,100310.47
2017-09-16T00:53:37.370Z,100317.53
2017-09-16T00:56:06.459Z,100308.80
2017-09-16T00:58:34.783Z,100313.52
2017-09-16T01:01:03.102Z,100322.46
2017-09-16T01:03:31.432Z,100319.05
2017-09-16T01:05:59.732Z,100316.10
2017-09-16T01:08:28.100Z,100313.73
2017-09-16T01:10:56.397Z,100313.92
2017-09-16T01:13:24.738Z,100315.91
2017-09-16T01:15:53.030Z,100318.11
2017-09-16T01:18:21.363Z,100308.33
2017-09-16T01:20:50.428Z,100321.28
2017-09-16T01:23:18.712Z,100313.95
2017-09-16T01:25:47.022Z,100312.39
2017-09-16T01:28:16.078Z,100314.94
2017-09-16T01:30:44.406Z,100314.00
2017-09-16T01:33:13.457Z,100312.86
2017-09-16T01:35:41.773Z,100311.50
2017-09-16T01:38:10.847Z,100314.46
2017-09-16T01:40:39.951Z,100307.02
2017-09-16T01:43:09.015Z,100314.38
2017-09-16T01:45:37.301Z,100306.73
2017-09-16T01:48:05.603Z,100306.02
2017-09-16T01:50:34.660Z,100312.41
2017-09-16T01:53:02.970Z,100303.18
2017-09-16T01:55:32.044Z,100303.11
2017-09-16T01:58:00.358Z,100302.09
2017-09-16T02:00:29.418Z,100302.00
2017-09-16T02:02:57.740Z,100305.87
2017-09-16T02:05:26.046Z,100310.67
2017-09-16T02:07:54.373Z,100310.52
2017-09-16T02:10:23.438Z,100307.59
2017-09-16T02:12:51.729Z,100310.59
2017-09-16T02:15:20.050Z,100318.68
2017-09-16T02:17:48.357Z,100312.70
2017-09-16T02:20:16.660Z,100327.16
2017-09-16T02:22:44.964Z,100324.05
2017-09-16T02:25:14.030Z,100318.16
2017-09-16T02:27:42.321Z,100319.63
2017-09-16T02:30:11.398Z,100326.48
2017-09-16T02:32:39.707Z,100329.55
2017-09-16T02:35:08.760Z,100328.81
2017-09-16T02:37:37.098Z,100325.45
2017-09-16T02:40:05.390Z,100324.69
2017-09-16T02:42:33.699Z,100326.98
2017-09-16T02:45:02.007Z,100326.09
2017-09-16T02:47:31.081Z,100333.32
2017-09-16T02:49:59.396Z,100330.98
2017-09-16T02:52:27.738Z,100323.86
2017-09-16T02:54:56.829Z,100323.91
2017-09-16T02:57:25.131Z,100317.64
2017-09-16T02:59:54.211Z,100316.98
2017-09-16T03:02:22.497Z,100311.20
2017-09-16T03:04:51.565Z,100314.27
2017-09-16T03:07:19.872Z,100306.91
2017-09-16T03:09:48.942Z,100308.53
2017-09-16T03:12:17.237Z,100309.68
2017-09-16T03:14:46.315Z,100312.66
2017-09-16T03:17:14.613Z,100308.30
2017-09-16T03:19:43.724Z,100308.95
2017-09-16T03:22:12.022Z,100307.72
2017-09-16T03:24:40.318Z,100312.67
2017-09-16T03:27:08.639Z,100305.96
2017-09-16T03:29:37.710Z,100311.86
2017-09-16T03:32:06.020Z,100310.22
2017-09-16T03:34:35.082Z,100309.52
2017-09-16T03:37:03.420Z,100309.77
2017-09-16T03:39:31.722Z,100310.67
2017-09-16T03:42:00.050Z,100305.18
2017-09-16T03:44:28.347Z,100309.36
2017-09-16T03:46:56.727Z,100312.71
2017-09-16T03:49:25.036Z,100306.45
2017-09-16T03:51:53.326Z,100307.27
2017-09-16T03:54:21.626Z,100308.67
2017-09-16T03:56:50.681Z,100311.13
2017-09-16T03:59:18.990Z,100310.22
2017-09-16T04:02:05.839Z,100310.70
2017-09-16T04:04:34.162Z,100308.55
2017-09-16T04:07:02.459Z,100305.74
2017-09-16T04:09:31.531Z,100305.22
2017-09-16T04:11:59.969Z,100304.95
2017-09-16T04:14:28.270Z,100305.39
2017-09-16T04:16:56.580Z,100303.55
2017-09-16T04:19:25.652Z,100302.88
2017-09-16T04:21:53.962Z,100303.02
2017-09-16T04:24:23.026Z,100301.47
2017-09-16T04:26:51.354Z,100300.58
2017-09-16T04:29:19.650Z,100309.02
2017-09-16T04:31:47.959Z,100305.05
2017-09-16T04:34:16.263Z,100308.91
2017-09-16T04:36:45.336Z,100301.94
2017-09-16T04:39:13.650Z,100307.92
2017-09-16T04:41:41.962Z,100303.17
2017-09-16T04:44:10.309Z,100300.18
2017-09-16T04:46:38.615Z,100303.79
2017-09-16T04:49:06.935Z,100306.38
2017-09-16T04:51:35.233Z,100310.06
2017-09-16T04:54:04.306Z,100311.20
2017-09-16T04:56:32.611Z,100310.83
2017-09-16T04:59:00.910Z,100305.34
2017-09-16T05:01:29.217Z,100311.05
2017-09-16T05:03:57.528Z,100314.92
2017-09-16T05:06:26.624Z,100317.72
2017-09-16T05:08:55.686Z,100319.89
2017-09-16T05:11:24.021Z,100317.35
2017-09-16T05:13:52.314Z,100324.81
2017-09-16T05:16:20.647Z,100324.06
2017-09-16T05:18:49.706Z,100330.30
2017-09-16T05:21:18.057Z,100327.16
2017-09-16T05:23:46.399Z,100331.14
2017-09-16T05:26:15.462Z,100329.52
2017-09-16T05:28:43.771Z,100330.78
2017-09-16T05:31:12.057Z,100333.69
2017-09-16T05:33:41.158Z,100329.22
2017-09-16T05:36:09.462Z,100323.47
2017-09-16T05:38:37.761Z,100325.81
2017-09-16T05:41:06.074Z,100329.34
2017-09-16T05:43:35.208Z,100321.71
2017-09-16T05:46:03.510Z,100325.95
2017-09-16T05:48:31.828Z,100327.63
2017-09-16T05:51:00.898Z,100327.87
2017-09-16T05:53:29.193Z,100328.95
2017-09-16T05:55:58.276Z,100327.89
2017-09-16T05:58:26.602Z,100326.07
2017-09-16T06:00:54.905Z,100328.27
2017-09-16T06:03:23.198Z,100332.05
2017-09-16T06:05:51.505Z,100325.67
2017-09-16T06:08:20.570Z,100325.95
2017-09-16T06:10:48.903Z,100325.77
2017-09-16T06:13:17.203Z,100335.87
2017-09-16T06:15:45.501Z,100330.30
2017-09-16T06:18:13.811Z,100335.27
2017-09-16T06:20:42.877Z,100335.03
2017-09-16T06:23:11.189Z,100337.29
2017-09-16T06:25:40.347Z,100341.23
2017-09-16T06:28:08.659Z,100343.47
2017-09-16T06:30:40.458Z,100335.52
2017-09-16T06:33:08.792Z,100338.64
2017-09-16T06:35:37.849Z,100336.96
2017-09-16T06:38:06.146Z,100338.58
2017-09-16T06:40:35.369Z,100343.88
2017-09-16T06:43:04.438Z,100353.33
2017-09-16T06:45:32.741Z,100351.39
2017-09-16T06:48:01.797Z,100355.53
2017-09-16T06:50:30.098Z,100359.40
2017-09-16T06:52:59.163Z,100359.88
2017-09-16T06:55:27.467Z,100365.33
2017-09-16T06:57:56.524Z,100368.03
2017-09-16T07:00:24.845Z,100367.88
2017-09-16T07:03:21.200Z,100369.29
2017-09-16T07:05:49.516Z,100366.25
2017-09-16T07:08:17.821Z,100367.08
2017-09-16T07:10:46.121Z,100374.91
2017-09-16T07:13:14.433Z,100371.20
2017-09-16T07:15:42.734Z,100367.14
2017-09-16T07:18:11.050Z,100369.90
2017-09-16T07:20:40.114Z,100375.25
2017-09-16T07:23:08.428Z,100380.03
2017-09-16T07:25:36.734Z,100389.13
2017-09-16T07:28:05.043Z,100384.77
2017-09-16T07:30:33.585Z,100385.00
2017-09-16T07:33:01.923Z,100382.36
2017-09-16T07:35:30.990Z,100386.81
2017-09-16T07:37:59.294Z,100394.02
2017-09-16T07:40:28.404Z,100388.58
2017-09-16T07:42:57.465Z,100394.53
2017-09-16T07:45:25.785Z,100395.19
2017-09-16T07:47:54.086Z,100393.98
2017-09-16T07:50:22.392Z,100401.36
2017-09-16T07:52:50.702Z,100401.38
2017-09-16T07:55:19.774Z,100401.44
2017-09-16T07:57:48.070Z,100403.21
2017-09-16T08:00:17.169Z,100405.59
2017-09-16T08:02:46.235Z,100408.61
2017-09-16T08:05:14.538Z,100404.64
2017-09-16T08:07:43.622Z,100410.53
2017-09-16T08:10:11.927Z,100409.55
2017-09-16T08:12:40.243Z,100408.36
2017-09-16T08:15:08.567Z,100410.83
2017-09-16T08:17:37.638Z,100412.19
2017-09-16T08:20:05.928Z,100414.58
2017-09-16T08:22:34.234Z,100420.17
2017-09-16T08:25:02.534Z,100423.73
2017-09-16T08:27:30.866Z,100428.20
2017-09-16T08:29:59.939Z,100432.75
2017-09-16T08:32:28.237Z,100434.20
2017-09-16T08:34:57.322Z,100437.16
2017-09-16T08:37:25.625Z,100435.06
2017-09-16T08:39:53.947Z,100432.63
2017-09-16T08:42:22.270Z,100423.34
2017-09-16T08:44:51.350Z,100433.13
2017-09-16T08:47:19.651Z,100430.31
2017-09-16T08:49:47.961Z,100428.62
2017-09-16T08:52:16.282Z,100427.00
2017-09-16T08:54:44.594Z,100425.23
2017-09-16T08:57:12.897Z,100424.56
2017-09-16T08:59:41.259Z,100419.28
2017-09-16T09:02:09.560Z,100425.84
2017-09-16T09:04:37.870Z,100423.62
2017-09-16T09:07:06.186Z,100418.19
2017-09-16T09:09:34.505Z,100417.38
2017-09-16T09:12:02.846Z,100421.27
2017-09-16T09:14:31.141Z,100414.34
2017-09-16T09:16:59.458Z,100416.49
2017-09-16T09:19:27.763Z,100419.33
2017-09-16T09:21:56.080Z,100415.52
2017-09-16T09:24:24.378Z,100416.61
2017-09-16T09:26:52.701Z,100420.56
2017-09-16T09:29:20.998Z,100419.77
2017-09-16T09:31:49.305Z,100419.06
2017-09-16T09:34:17.610Z,100425.14
2017-09-16T09:36:46.679Z,100426.24
2017-09-16T09:39:14.986Z,100427.60
2017-09-16T09:41:44.045Z,100419.98
2017-09-16T09:44:12.349Z,100427.83
2017-09-16T09:46:41.432Z,100423.70
2017-09-16T09:49:09.761Z,100431.09
2017-09-16T09:51:38.061Z,100425.85
2017-09-16T09:54:07.117Z,100419.02
2017-09-16T09:56:35.421Z,100422.12
2017-09-16T09:59:03.733Z,100423.51
2017-09-16T10:01:32.062Z,100421.94
2017-09-16T10:04:00.366Z,100427.52
2017-09-16T10:06:28.677Z,100424.16
2017-09-16T10:08:57.742Z,100424.77
2017-09-16T10:11:26.054Z,100428.44
2017-09-16T10:13:55.126Z,100431.44
2017-09-16T10:16:23.481Z,100425.93
2017-09-16T10:18:51.794Z,100421.70
2017-09-16T10:21:20.870Z,100422.39
2017-09-16T10:23:49.195Z,100432.23
2017-09-16T10:26:17.516Z,100423.70
2017-09-16T10:28:45.826Z,100424.81
2017-09-16T10:31:14.890Z,100421.20
2017-09-16T10:33:43.201Z,100424.73
2017-09-16T10:36:12.277Z,100420.09
2017-09-16T10:38:40.590Z,100423.13
2017-09-16T10:41:08.899Z,100416.23
2017-09-16T10:43:37.205Z,100424.05
2017-09-16T10:46:05.517Z,100422.08
2017-09-16T10:48:34.610Z,100426.00
2017-09-16T10:51:03.677Z,100419.67
2017-09-16T10:53:31.974Z,100420.22
2017-09-16T10:56:01.057Z,100419.50
2017-09-16T10:58:29.353Z,100417.89
2017-09-16T11:00:58.434Z,100418.17
2017-09-16T11:03:27.502Z,100412.88
2017-09-16T11:05:55.808Z,100406.66
2017-09-16T11:08:24.883Z,100410.91
2017-09-16T11:10:53.209Z,100412.29
2017-09-16T11:13:21.508Z,100408.41
2017-09-16T11:15:49.838Z,100413.98
2017-09-16T11:18:18.906Z,100415.17
2017-09-16T11:20:47.202Z,100414.56
2017-09-16T11:23:15.514Z,100412.06
2017-09-16T11:25:43.818Z,100412.39
2017-09-16T11:28:12.162Z,100403.86
2017-09-16T11:30:40.457Z,100397.66
2017-09-16T11:33:08.765Z,100402.09
2017-09-16T11:35:37.062Z,100397.25
2017-09-16T11:38:05.387Z,100397.27
2017-09-16T11:40:33.685Z,100390.52
2017-09-16T11:43:01.996Z,100388.27
2017-09-16T11:45:31.084Z,100385.70
2017-09-16T11:48:00.213Z,100387.34
2017-09-16T11:50:28.539Z,100397.44
2017-09-16T11:52:56.934Z,100394.27
2017-09-16T11:55:25.256Z,100389.41
2017-09-16T11:57:53.558Z,100383.28
2017-09-16T12:00:21.890Z,100384.50
2017-09-16T12:02:50.953Z,100381.14
2017-09-16T12:05:19.271Z,100372.87
2017-09-16T12:07:47.583Z,100367.16
2017-09-16T12:10:15.913Z,100370.91
2017-09-16T12:12:44.986Z,100374.59
2017-09-16T12:15:13.610Z,100374.58
2017-09-16T12:17:41.911Z,100367.68
2017-09-16T12:20:10.248Z,100364.70
2017-09-16T12:22:39.332Z,100356.83
2017-09-16T12:25:07.638Z,100358.21
2017-09-16T12:27:35.945Z,100360.88
2017-09-16T12:30:04.253Z,100355.00
2017-09-16T12:32:32.558Z,100359.39
2017-09-16T12:35:01.625Z,100354.14
2017-09-16T12:37:29.937Z,100353.77
2017-09-16T12:39:58.251Z,100352.23
2017-09-16T12:42:26.597Z,100357.09
2017-09-16T12:44:54.903Z,100357.45
2017-09-16T12:47:23.204Z,100357.69
2017-09-16T12:49:51.527Z,100349.75
2017-09-16T12:52:19.821Z,100345.75
2017-09-16T12:54:48.129Z,100350.61
2017-09-16T12:57:16.418Z,100350.35
2017-09-16T12:59:44.752Z,100349.34
2017-09-16T13:02:13.057Z,100348.92
2017-09-16T13:04:41.362Z,100351.07
2017-09-16T13:07:09.667Z,100350.66
2017-09-16T13:09:37.974Z,100353.11
2017-09-16T13:12:06.299Z,100359.00
2017-09-16T13:14:35.364Z,100354.70
2017-09-16T13:17:03.692Z,100351.70
2017-09-16T13:19:31.990Z,100353.70
2017-09-16T13:22:00.318Z,100349.48
2017-09-16T13:24:29.395Z,100357.72
2017-09-16T13:26:57.694Z,100349.06
2017-09-16T13:29:26.768Z,100345.76
2017-09-16T13:31:55.100Z,100353.83
2017-09-16T13:34:23.414Z,100350.21
2017-09-16T13:36:51.714Z,100358.89
2017-09-16T13:39:20.026Z,100357.50
2017-09-16T13:41:48.322Z,100352.30
2017-09-16T13:44:16.626Z,100356.64
2017-09-16T13:46:44.930Z,100351.52
2017-09-16T13:49:14.015Z,100352.08
2017-09-16T13:51:42.338Z,100348.92
2017-09-16T13:54:10.645Z,100346.17
2017-09-16T13:56:38.945Z,100347.38
2017-09-16T13:59:07.238Z,100345.32
2017-09-16T14:01:36.322Z,100345.17
2017-09-16T14:04:04.626Z,100342.22
2017-09-16T14:06:32.933Z,100332.80
2017-09-16T14:09:01.234Z,100345.42
2017-09-16T14:11:29.549Z,100344.97
2017-09-16T14:13:58.617Z,100342.41
2017-09-16T14:16:26.928Z,100342.45
2017-09-16T14:18:55.240Z,100338.40
2017-09-16T14:21:23.537Z,100340.92
2017-09-16T14:23:51.852Z,100337.62
2017-09-16T14:26:20.154Z,100344.03
2017-09-16T14:28:48.738Z,100339.66
2017-09-16T14:31:17.039Z,100337.34
2017-09-16T14:33:45.372Z,100338.69
2017-09-16T14:36:13.678Z,100343.33
2017-09-16T14:38:41.973Z,100341.87
2017-09-16T14:41:10.290Z,100343.64
2017-09-16T14:43:39.361Z,100336.70
2017-09-16T14:46:07.667Z,100338.14
2017-09-16T14:48:36.726Z,100339.98
2017-09-16T14:51:05.045Z,100341.11
2017-09-16T14:53:34.111Z,100340.34
2017-09-16T14:56:02.474Z,100341.14
2017-09-16T14:58:30.778Z,100338.91
2017-09-16T15:00:59.854Z,100338.56
2017-09-16T15:03:28.157Z,100345.78
2017-09-16T15:05:57.222Z,100345.44
2017-09-16T15:08:26.297Z,100339.06
2017-09-16T15:10:54.601Z,100338.52
2017-09-16T15:13:22.914Z,100336.25
2017-09-16T15:15:51.209Z,100340.41
2017-09-16T15:18:19.535Z,100335.55
2017-09-16T15:20:47.837Z,100342.08
2017-09-16T15:23:16.921Z,100344.84
2017-09-16T15:25:45.995Z,100342.14
2017-09-16T15:28:14.306Z,100347.55
2017-09-16T15:30:43.398Z,100344.99
2017-09-16T15:33:12.493Z,100342.57
2017-09-16T15:35:41.557Z,100347.07
2017-09-16T15:38:09.854Z,100347.39
2017-09-16T15:40:38.175Z,100351.85
2017-09-16T15:43:06.494Z,100353.40
2017-09-16T15:45:34.807Z,100353.01
2017-09-16T15:48:03.109Z,100348.38
2017-09-16T15:50:31.421Z,100349.98
2017-09-16T15:52:59.741Z,100349.42
2017-09-16T15:55:28.054Z,100346.50
2017-09-16T15:57:56.354Z,100352.50
2017-09-16T16:00:24.677Z,100356.38
2017-09-16T16:02:52.986Z,100351.52
2017-09-16T16:05:21.311Z,100356.67
2017-09-16T16:07:50.381Z,100354.64
2017-09-16T16:10:18.685Z,100357.80
2017-09-16T16:12:47.777Z,100364.50
2017-09-16T16:15:16.846Z,100360.67
2017-09-16T16:17:45.170Z,100362.12
2017-09-16T16:20:13.476Z,100369.85
2017-09-16T16:22:41.786Z,100368.72
2017-09-16T16:25:10.081Z,100363.97
2017-09-16T16:27:38.414Z,100369.19
2017-09-16T16:30:07.489Z,100372.72
2017-09-16T16:32:35.791Z,100375.48
2017-09-16T16:35:04.103Z,100380.89
2017-09-16T16:37:33.182Z,100379.72
2017-09-16T16:40:01.494Z,100384.02
2017-09-16T16:42:29.798Z,100389.51
2017-09-16T16:44:58.105Z,100393.06
2017-09-16T16:47:26.417Z,100391.45
2017-09-16T16:49:55.509Z,100393.10
2017-09-16T16:52:24.581Z,100394.23
2017-09-16T16:54:52.902Z,100395.97
2017-09-16T16:57:21.215Z,100396.94
2017-09-16T16:59:49.526Z,100399.01
2017-09-16T17:02:17.836Z,100398.10
2017-09-16T17:04:46.145Z,100403.19
2017-09-16T17:07:14.460Z,100407.23
2017-09-16T17:09:43.533Z,100413.64
2017-09-16T17:12:11.841Z,100414.79
2017-09-16T17:14:40.907Z,100414.13
2017-09-16T17:17:09.227Z,100414.27
2017-09-16T17:19:37.541Z,100415.25
2017-09-16T17:22:05.862Z,100417.83
2017-09-16T17:24:34.934Z,100425.12
2017-09-16T17:27:03.238Z,100422.33
2017-09-16T17:29:32.335Z,100420.43
2017-09-16T17:32:01.405Z,100426.56
2017-09-16T17:34:29.713Z,100433.81
2017-09-16T17:36:59.455Z,100431.88
2017-09-16T17:39:27.778Z,100432.69
2017-09-16T17:41:56.070Z,100445.93
2017-09-16T17:44:25.149Z,100447.83
2017-09-16T17:46:53.453Z,100445.19
2017-09-16T17:49:22.525Z,100449.94
2017-09-16T17:51:50.826Z,100456.03
2017-09-16T17:54:19.157Z,100453.14
2017-09-16T17:56:47.466Z,100457.23
2017-09-16T17:59:16.537Z,100459.18
2017-09-16T18:01:44.875Z,100461.46
2017-09-16T18:04:13.199Z,100460.50
2017-09-16T18:06:42.343Z,100462.91
2017-09-16T18:09:10.638Z,100468.77
2017-09-16T18:11:38.950Z,100447.22
2017-09-16T18:14:07.254Z,100467.34
2017-09-16T18:16:36.329Z,100470.02
2017-09-16T18:19:04.627Z,100474.27
2017-09-16T18:21:33.698Z,100468.34
2017-09-16T18:24:02.003Z,100475.83
2017-09-16T18:26:30.330Z,100474.03
2017-09-16T18:28:58.630Z,100474.17
2017-09-16T18:31:26.929Z,100479.30
2017-09-16T18:33:56.010Z,100479.23
2017-09-16T18:36:25.073Z,100478.77
2017-09-16T18:38:53.390Z,100473.83
2017-09-16T18:41:22.468Z,100479.91
2017-09-16T18:43:50.786Z,100482.64
2017-09-16T18:46:19.099Z,100482.23
2017-09-16T18:48:47.412Z,100488.62
2017-09-16T18:51:16.484Z,100484.72
2017-09-16T18:53:44.817Z,100489.68
2017-09-16T18:56:13.127Z,100490.31
2017-09-16T18:58:42.194Z,100488.99
2017-09-16T19:01:10.511Z,100490.97
2017-09-16T19:03:38.813Z,100491.30
2017-09-16T19:06:07.890Z,100490.73
2017-09-16T19:08:36.190Z,100499.02
2017-09-16T19:11:05.266Z,100495.41
2017-09-16T19:13:33.572Z,100493.15
2017-09-16T19:16:01.885Z,100504.04
2017-09-16T19:18:30.185Z,100496.51
2017-09-16T19:20:58.500Z,100494.37
2017-09-16T19:23:27.569Z,100497.41
2017-09-16T19:25:55.905Z,100490.88
2017-09-16T19:28:24.214Z,100500.33
2017-09-16T19:30:52.558Z,100505.31
2017-09-16T19:33:20.954Z,100503.08
2017-09-16T19:35:49.258Z,100505.39
2017-09-16T19:38:17.585Z,100507.38
2017-09-16T19:40:45.910Z,100511.59
2017-09-16T19:43:14.240Z,100503.00
2017-09-16T19:45:42.549Z,100511.67
2017-09-16T19:48:10.870Z,100508.55
2017-09-16T19:50:39.973Z,100517.45
2017-09-16T19:53:08.306Z,100518.52
2017-09-16T19:55:36.614Z,100519.09
2017-09-16T19:58:05.687Z,100533.02
2017-09-16T20:00:34.577Z,100524.50
2017-09-16T20:03:02.883Z,100523.55
2017-09-16T20:05:31.962Z,100529.71
2017-09-16T20:08:01.029Z,100532.64
2017-09-16T20:10:29.354Z,100530.75
2017-09-16T20:12:57.661Z,100533.67
2017-09-16T20:15:25.978Z,100531.52
2017-09-16T20:17:54.286Z,100534.56
2017-09-16T20:20:22.619Z,100539.91
2017-09-16T20:22:50.925Z,100543.70
2017-09-16T20:25:19.242Z,100547.20
2017-09-16T20:27:47.549Z,100549.75
2017-09-16T20:30:15.896Z,100542.41
2017-09-16T20:32:44.214Z,100547.55
2017-09-16T20:35:12.518Z,100540.62
2017-09-16T20:37:41.601Z,100546.00
2017-09-16T20:40:09.921Z,100548.40
2017-09-16T20:42:38.250Z,100551.31
2017-09-16T20:45:06.568Z,100550.66
2017-09-16T20:47:34.882Z,100556.36
2017-09-16T20:50:03.201Z,100564.45
2017-09-16T20:52:32.294Z,100565.81
2017-09-16T20:55:01.369Z,100567.97
2017-09-16T20:57:29.713Z,100568.13
2017-09-16T20:59:58.031Z,100569.89
2017-09-16T21:02:26.351Z,100569.76
2017-09-16T21:04:54.665Z,100569.00
2017-09-16T21:07:23.004Z,100569.34
2017-09-16T21:09:51.309Z,100569.28
2017-09-16T21:12:20.382Z,100573.61
2017-09-16T21:14:48.694Z,100574.44
2017-09-16T21:17:16.993Z,100569.89
2017-09-16T21:19:45.311Z,100572.39
2017-09-16T21:22:13.622Z,100569.13
2017-09-16T21:24:41.938Z,100571.79
2017-09-16T21:27:10.259Z,100572.20
2017-09-16T21:29:38.574Z,100570.97
2017-09-16T21:32:06.891Z,100572.70
2017-09-16T21:34:35.232Z,100573.41
2017-09-16T21:37:04.313Z,100580.77
2017-09-16T21:39:32.626Z,100574.70
2017-09-16T21:42:01.725Z,100570.86
2017-09-16T21:44:30.034Z,100569.32
2017-09-16T21:46:58.546Z,100568.30
2017-09-16T21:49:26.858Z,100560.41
2017-09-16T21:51:55.199Z,100561.41
2017-09-16T21:54:23.510Z,100568.81
2017-09-16T21:56:52.599Z,100573.66
2017-09-16T21:59:21.667Z,100569.66
2017-09-16T22:01:49.988Z,100574.03
2017-09-16T22:04:18.295Z,100567.72
2017-09-16T22:06:46.599Z,100566.13
2017-09-16T22:09:14.919Z,100566.58
2017-09-16T22:11:43.217Z,100564.09
2017-09-16T22:14:11.532Z,100565.03
2017-09-16T22:16:39.833Z,100567.80
2017-09-16T22:19:08.150Z,100570.30
2017-09-16T22:21:36.454Z,100569.37
2017-09-16T22:24:05.590Z,100568.08
2017-09-16T22:26:34.650Z,100562.51
2017-09-16T22:29:02.993Z,100568.67
2017-09-16T22:31:31.295Z,100571.59
2017-09-16T22:33:59.613Z,100566.52
2017-09-16T22:36:28.686Z,100575.39
2017-09-16T22:38:56.986Z,100581.34
2017-09-16T22:41:26.063Z,100577.19
2017-09-16T22:43:54.362Z,100577.11
2017-09-16T22:46:22.686Z,100570.78
2017-09-16T22:48:51.002Z,100575.47
2017-09-16T22:51:20.124Z,100580.41
2017-09-16T22:53:49.170Z,100577.08
2017-09-16T22:56:17.494Z,100577.70
2017-09-16T22:58:45.808Z,100582.91
2017-09-16T23:01:14.148Z,100587.83
2017-09-16T23:03:42.445Z,100590.43
2017-09-16T23:06:10.751Z,100582.84
2017-09-16T23:08:39.062Z,100591.12
2017-09-16T23:11:08.126Z,100593.56
2017-09-16T23:13:36.446Z,100586.50
2017-09-16T23:16:04.758Z,100587.94
2017-09-16T23:18:33.123Z,100590.00
2017-09-16T23:21:01.419Z,100583.88
2017-09-16T23:23:29.733Z,100590.16
2017-09-16T23:25:58.812Z,100588.14
2017-09-16T23:28:27.117Z,100589.82
2017-09-16T23:30:56.182Z,100587.53
2017-09-16T23:33:24.516Z,100591.67
2017-09-16T23:35:52.805Z,100587.78
2017-09-16T23:38:21.105Z,100589.91
2017-09-16T23:40:49.409Z,100588.02
2017-09-16T23:43:18.474Z,100591.92
2017-09-16T23:45:46.785Z,100588.56
2017-09-16T23:48:15.850Z,100592.47
2017-09-16T23:50:44.162Z,100586.52
2017-09-16T23:53:13.222Z,100586.48
2017-09-16T23:55:41.531Z,100590.25
2017-09-16T23:58:10.606Z,100584.53
